X  Close Metar Aviation Weather Data     EBBR Brussels Airport
Temperature
1°C Temperature
0°C Dewpoint
93% Humidity



Wind
21 KM/H
13 MPH
6 M/S
11 KTS



190°
South
Current Conditions

Light Drizzle Light Drizzle
Pressure 1012.92 (hPa) - 29.91 (inHg)
Visibility 6.2 (mile) - 10 (km)
Airport
Airport-code EBBR

Location: Brussels Airport
Distance: 14 (km)

Metar:
EBBR 270250Z 19011KT 9999 -DZ SCT007 BKN011 01/M00 Q1013 TEMPO 4000 -RADZ SCT004 BKN008

Time: 2021-01-27 03:50 CET